sensor_id;sensor_type;location;lat;lon;timestamp;pressure;altitude;pressure_sealevel;temperature;humidity
64713;BME280;51140;45.340;5.980;2024-02-04T00:00:07;99752.31;;;3.27;100.00
64713;BME280;51140;45.340;5.980;2024-02-04T00:02:32;99755.81;;;3.20;100.00
64713;BME280;51140;45.340;5.980;2024-02-04T00:04:57;99751.94;;;3.16;100.00
64713;BME280;51140;45.340;5.980;2024-02-04T00:07:23;99754.81;;;3.21;100.00
64713;BME280;51140;45.340;5.980;2024-02-04T00:09:48;99753.91;;;3.14;100.00
64713;BME280;51140;45.340;5.980;2024-02-04T00:12:14;99758.34;;;3.13;100.00
64713;BME280;51140;45.340;5.980;2024-02-04T00:14:39;99760.38;;;3.03;100.00
64713;BME280;51140;45.340;5.980;2024-02-04T00:17:05;99755.41;;;2.94;100.00
64713;BME280;51140;45.340;5.980;2024-02-04T00:19:30;99760.84;;;3.07;100.00
64713;BME280;51140;45.340;5.980;2024-02-04T00:21:55;99751.66;;;3.11;100.00
64713;BME280;51140;45.340;5.980;2024-02-04T00:24:21;99749.44;;;3.00;100.00
64713;BME280;51140;45.340;5.980;2024-02-04T00:26:46;99740.00;;;2.91;100.00
64713;BME280;51140;45.340;5.980;2024-02-04T00:29:12;99737.25;;;2.84;100.00
64713;BME280;51140;45.340;5.980;2024-02-04T00:31:37;99750.84;;;2.87;100.00
64713;BME280;51140;45.340;5.980;2024-02-04T00:34:03;99746.81;;;3.00;100.00
64713;BME280;51140;45.340;5.980;2024-02-04T00:36:30;99751.88;;;3.01;100.00
64713;BME280;51140;45.340;5.980;2024-02-04T00:38:55;99753.34;;;3.04;100.00
64713;BME280;51140;45.340;5.980;2024-02-04T00:41:20;99755.47;;;3.00;100.00
64713;BME280;51140;45.340;5.980;2024-02-04T00:43:46;99753.75;;;2.93;100.00
64713;BME280;51140;45.340;5.980;2024-02-04T00:46:11;99751.75;;;2.95;100.00
64713;BME280;51140;45.340;5.980;2024-02-04T00:48:37;99748.28;;;3.02;100.00
64713;BME280;51140;45.340;5.980;2024-02-04T00:51:03;99740.44;;;2.94;100.00
64713;BME280;51140;45.340;5.980;2024-02-04T00:53:28;99741.47;;;2.93;100.00
64713;BME280;51140;45.340;5.980;2024-02-04T00:56:00;99746.78;;;2.85;100.00
64713;BME280;51140;45.340;5.980;2024-02-04T00:58:25;99746.41;;;2.88;100.00
64713;BME280;51140;45.340;5.980;2024-02-04T01:00:50;99741.34;;;2.86;100.00
64713;BME280;51140;45.340;5.980;2024-02-04T01:03:16;99753.06;;;2.76;100.00
64713;BME280;51140;45.340;5.980;2024-02-04T01:05:41;99758.81;;;2.71;100.00
64713;BME280;51140;45.340;5.980;2024-02-04T01:08:06;99760.09;;;2.75;100.00
64713;BME280;51140;45.340;5.980;2024-02-04T01:10:32;99751.59;;;2.73;100.00
64713;BME280;51140;45.340;5.980;2024-02-04T01:12:57;99747.34;;;2.72;100.00
64713;BME280;51140;45.340;5.980;2024-02-04T01:15:22;99741.81;;;2.67;100.00
64713;BME280;51140;45.340;5.980;2024-02-04T01:17:48;99739.34;;;2.66;100.00
64713;BME280;51140;45.340;5.980;2024-02-04T01:20:13;99741.00;;;2.67;100.00
64713;BME280;51140;45.340;5.980;2024-02-04T01:22:39;99744.19;;;2.54;100.00
64713;BME280;51140;45.340;5.980;2024-02-04T01:25:05;99752.34;;;2.59;100.00
64713;BME280;51140;45.340;5.980;2024-02-04T01:27:31;99760.81;;;2.69;100.00
64713;BME280;51140;45.340;5.980;2024-02-04T01:29:56;99753.53;;;2.79;100.00
64713;BME280;51140;45.340;5.980;2024-02-04T01:32:21;99745.66;;;2.79;100.00
64713;BME280;51140;45.340;5.980;2024-02-04T01:34:47;99748.84;;;2.89;100.00
64713;BME280;51140;45.340;5.980;2024-02-04T01:37:12;99745.19;;;2.99;100.00
64713;BME280;51140;45.340;5.980;2024-02-04T01:39:38;99741.84;;;3.05;100.00
64713;BME280;51140;45.340;5.980;2024-02-04T01:42:03;99740.69;;;3.07;100.00
64713;BME280;51140;45.340;5.980;2024-02-04T01:44:30;99742.41;;;3.15;100.00
64713;BME280;51140;45.340;5.980;2024-02-04T01:46:55;99753.03;;;3.21;100.00
64713;BME280;51140;45.340;5.980;2024-02-04T01:49:21;99751.72;;;3.17;100.00
64713;BME280;51140;45.340;5.980;2024-02-04T01:51:47;99757.56;;;3.27;100.00
64713;BME280;51140;45.340;5.980;2024-02-04T01:54:12;99770.75;;;3.19;100.00
64713;BME280;51140;45.340;5.980;2024-02-04T01:56:38;99768.22;;;3.26;100.00
64713;BME280;51140;45.340;5.980;2024-02-04T01:59:03;99767.59;;;3.24;100.00
64713;BME280;51140;45.340;5.980;2024-02-04T02:01:29;99755.84;;;3.34;100.00
64713;BME280;51140;45.340;5.980;2024-02-04T02:03:54;99766.25;;;3.28;100.00
64713;BME280;51140;45.340;5.980;2024-02-04T02:06:20;99752.81;;;3.23;100.00
64713;BME280;51140;45.340;5.980;2024-02-04T02:08:46;99749.78;;;3.19;100.00
64713;BME280;51140;45.340;5.980;2024-02-04T02:11:19;99749.41;;;3.37;100.00
64713;BME280;51140;45.340;5.980;2024-02-04T02:13:51;99759.63;;;3.32;100.00
64713;BME280;51140;45.340;5.980;2024-02-04T02:16:21;99760.09;;;3.35;100.00
64713;BME280;51140;45.340;5.980;2024-02-04T02:18:51;99758.81;;;3.31;100.00
64713;BME280;51140;45.340;5.980;2024-02-04T02:21:30;99762.84;;;3.42;100.00
64713;BME280;51140;45.340;5.980;2024-02-04T02:26:47;99762.00;;;3.27;100.00
64713;BME280;51140;45.340;5.980;2024-02-04T02:29:13;99750.19;;;3.23;100.00
64713;BME280;51140;45.340;5.980;2024-02-04T02:31:40;99739.09;;;3.35;100.00
64713;BME280;51140;45.340;5.980;2024-02-04T02:34:06;99741.63;;;3.29;100.00
64713;BME280;51140;45.340;5.980;2024-02-04T02:36:44;99750.06;;;3.39;100.00
64713;BME280;51140;45.340;5.980;2024-02-04T02:39:18;99746.88;;;3.29;100.00
64713;BME280;51140;45.340;5.980;2024-02-04T02:41:51;99748.69;;;3.28;100.00
64713;BME280;51140;45.340;5.980;2024-02-04T02:44:21;99735.38;;;3.30;100.00
64713;BME280;51140;45.340;5.980;2024-02-04T02:46:49;99738.38;;;3.27;100.00
64713;BME280;51140;45.340;5.980;2024-02-04T02:49:15;99732.69;;;3.38;100.00
64713;BME280;51140;45.340;5.980;2024-02-04T02:51:40;99724.81;;;3.38;100.00
64713;BME280;51140;45.340;5.980;2024-02-04T02:54:06;99722.19;;;3.38;100.00
64713;BME280;51140;45.340;5.980;2024-02-04T02:56:31;99717.66;;;3.32;100.00
64713;BME280;51140;45.340;5.980;2024-02-04T02:58:56;99731.31;;;3.27;100.00
64713;BME280;51140;45.340;5.980;2024-02-04T03:01:22;99725.59;;;3.24;100.00
64713;BME280;51140;45.340;5.980;2024-02-04T03:03:48;99729.22;;;3.23;100.00
64713;BME280;51140;45.340;5.980;2024-02-04T03:06:14;99722.44;;;3.28;100.00
64713;BME280;51140;45.340;5.980;2024-02-04T03:08:39;99723.63;;;3.40;100.00
64713;BME280;51140;45.340;5.980;2024-02-04T03:11:05;99728.38;;;3.45;100.00
64713;BME280;51140;45.340;5.980;2024-02-04T03:13:30;99731.50;;;3.40;100.00
64713;BME280;51140;45.340;5.980;2024-02-04T03:15:56;99735.31;;;3.38;100.00
64713;BME280;51140;45.340;5.980;2024-02-04T03:18:21;99727.44;;;3.38;100.00
64713;BME280;51140;45.340;5.980;2024-02-04T03:20:46;99718.00;;;3.29;100.00
64713;BME280;51140;45.340;5.980;2024-02-04T03:23:12;99731.69;;;3.39;100.00
64713;BME280;51140;45.340;5.980;2024-02-04T03:25:37;99713.50;;;3.52;100.00
64713;BME280;51140;45.340;5.980;2024-02-04T03:28:03;99716.41;;;3.57;100.00
64713;BME280;51140;45.340;5.980;2024-02-04T03:30:28;99710.44;;;3.63;100.00
64713;BME280;51140;45.340;5.980;2024-02-04T03:32:54;99715.41;;;3.58;100.00
64713;BME280;51140;45.340;5.980;2024-02-04T03:35:19;99707.53;;;3.58;100.00
64713;BME280;51140;45.340;5.980;2024-02-04T03:37:45;99709.44;;;3.64;100.00
64713;BME280;51140;45.340;5.980;2024-02-04T03:40:11;99711.34;;;3.70;100.00
64713;BME280;51140;45.340;5.980;2024-02-04T03:42:36;99703.63;;;3.69;100.00
64713;BME280;51140;45.340;5.980;2024-02-04T03:45:01;99695.03;;;3.89;100.00
64713;BME280;51140;45.340;5.980;2024-02-04T03:47:28;99704.66;;;3.82;100.00
64713;BME280;51140;45.340;5.980;2024-02-04T03:49:54;99704.34;;;3.77;100.00
64713;BME280;51140;45.340;5.980;2024-02-04T03:52:19;99720.22;;;3.69;100.00
64713;BME280;51140;45.340;5.980;2024-02-04T03:54:44;99718.13;;;3.65;100.00
64713;BME280;51140;45.340;5.980;2024-02-04T03:57:10;99710.06;;;3.66;100.00
64713;BME280;51140;45.340;5.980;2024-02-04T03:59:35;99715.50;;;3.65;100.00
64713;BME280;51140;45.340;5.980;2024-02-04T04:02:00;99717.69;;;3.61;100.00
64713;BME280;51140;45.340;5.980;2024-02-04T04:04:26;99728.81;;;3.63;100.00
64713;BME280;51140;45.340;5.980;2024-02-04T04:06:51;99735.06;;;3.47;100.00
64713;BME280;51140;45.340;5.980;2024-02-04T04:09:16;99744.66;;;3.55;100.00
64713;BME280;51140;45.340;5.980;2024-02-04T04:11:42;99756.88;;;3.48;100.00
64713;BME280;51140;45.340;5.980;2024-02-04T04:14:07;99770.34;;;3.30;100.00
64713;BME280;51140;45.340;5.980;2024-02-04T04:16:33;99776.03;;;3.34;100.00
64713;BME280;51140;45.340;5.980;2024-02-04T04:18:58;99779.56;;;3.41;100.00
64713;BME280;51140;45.340;5.980;2024-02-04T04:21:23;99778.75;;;3.40;100.00
64713;BME280;51140;45.340;5.980;2024-02-04T04:23:49;99777.22;;;3.46;100.00
64713;BME280;51140;45.340;5.980;2024-02-04T04:26:15;99775.69;;;3.52;100.00
64713;BME280;51140;45.340;5.980;2024-02-04T04:28:40;99772.44;;;3.50;100.00
64713;BME280;51140;45.340;5.980;2024-02-04T04:31:05;99775.34;;;3.55;100.00
64713;BME280;51140;45.340;5.980;2024-02-04T04:33:31;99780.69;;;3.61;100.00
64713;BME280;51140;45.340;5.980;2024-02-04T04:35:56;99774.50;;;3.54;100.00
64713;BME280;51140;45.340;5.980;2024-02-04T04:38:21;99765.75;;;3.62;100.00
64713;BME280;51140;45.340;5.980;2024-02-04T04:40:47;99773.19;;;3.73;100.00
64713;BME280;51140;45.340;5.980;2024-02-04T04:43:12;99775.91;;;3.79;100.00
64713;BME280;51140;45.340;5.980;2024-02-04T04:45:38;99769.91;;;3.85;100.00
64713;BME280;51140;45.340;5.980;2024-02-04T04:48:03;99768.75;;;3.73;100.00
64713;BME280;51140;45.340;5.980;2024-02-04T04:50:29;99770.72;;;3.71;100.00
64713;BME280;51140;45.340;5.980;2024-02-04T04:52:54;99766.88;;;3.82;100.00
64713;BME280;51140;45.340;5.980;2024-02-04T04:55:20;99774.28;;;3.93;100.00
64713;BME280;51140;45.340;5.980;2024-02-04T04:57:45;99776.00;;;3.86;100.00
64713;BME280;51140;45.340;5.980;2024-02-04T05:00:11;99776.91;;;3.93;100.00
64713;BME280;51140;45.340;5.980;2024-02-04T05:02:39;99784.50;;;4.02;100.00
64713;BME280;51140;45.340;5.980;2024-02-04T05:05:05;99789.03;;;3.94;100.00
64713;BME280;51140;45.340;5.980;2024-02-04T05:07:31;99786.50;;;4.00;100.00
64713;BME280;51140;45.340;5.980;2024-02-04T05:09:56;99800.66;;;3.99;100.00
64713;BME280;51140;45.340;5.980;2024-02-04T05:12:22;99798.75;;;3.93;100.00
64713;BME280;51140;45.340;5.980;2024-02-04T05:14:47;99806.81;;;4.07;100.00
64713;BME280;51140;45.340;5.980;2024-02-04T05:17:12;99812.97;;;3.99;100.00
64713;BME280;51140;45.340;5.980;2024-02-04T05:19:41;99811.13;;;3.70;100.00
64713;BME280;51140;45.340;5.980;2024-02-04T05:22:07;99815.56;;;3.70;100.00
64713;BME280;51140;45.340;5.980;2024-02-04T05:24:32;99819.19;;;3.69;100.00
64713;BME280;51140;45.340;5.980;2024-02-04T05:26:57;99821.34;;;3.80;100.00
64713;BME280;51140;45.340;5.980;2024-02-04T05:29:23;99815.66;;;3.62;100.00
64713;BME280;51140;45.340;5.980;2024-02-04T05:31:48;99826.88;;;3.56;100.00
64713;BME280;51140;45.340;5.980;2024-02-04T05:34:14;99821.38;;;3.65;100.00
64713;BME280;51140;45.340;5.980;2024-02-04T05:36:39;99838.66;;;3.74;100.00
64713;BME280;51140;45.340;5.980;2024-02-04T05:39:13;99842.19;;;3.67;100.00
64713;BME280;51140;45.340;5.980;2024-02-04T05:41:39;99850.03;;;3.52;100.00
64713;BME280;51140;45.340;5.980;2024-02-04T05:44:05;99844.03;;;3.43;100.00
64713;BME280;51140;45.340;5.980;2024-02-04T05:46:31;99847.59;;;3.51;100.00
64713;BME280;51140;45.340;5.980;2024-02-04T05:48:56;99850.06;;;3.67;100.00
64713;BME280;51140;45.340;5.980;2024-02-04T05:51:22;99850.44;;;3.78;100.00
64713;BME280;51140;45.340;5.980;2024-02-04T05:53:47;99857.34;;;3.79;100.00
64713;BME280;51140;45.340;5.980;2024-02-04T05:56:13;99858.88;;;3.74;100.00
64713;BME280;51140;45.340;5.980;2024-02-04T05:58:39;99856.06;;;3.75;100.00
64713;BME280;51140;45.340;5.980;2024-02-04T06:01:05;99863.13;;;3.75;100.00
64713;BME280;51140;45.340;5.980;2024-02-04T06:03:30;99857.22;;;3.73;100.00
64713;BME280;51140;45.340;5.980;2024-02-04T06:05:55;99852.81;;;3.73;100.00
64713;BME280;51140;45.340;5.980;2024-02-04T06:08:21;99858.88;;;3.74;100.00
64713;BME280;51140;45.340;5.980;2024-02-04T06:10:46;99866.16;;;3.64;100.00
64713;BME280;51140;45.340;5.980;2024-02-04T06:13:11;99847.25;;;3.68;100.00
64713;BME280;51140;45.340;5.980;2024-02-04T06:15:37;99849.50;;;3.71;100.00
64713;BME280;51140;45.340;5.980;2024-02-04T06:18:02;99846.91;;;3.86;100.00
64713;BME280;51140;45.340;5.980;2024-02-04T06:20:28;99848.31;;;3.96;100.00
64713;BME280;51140;45.340;5.980;2024-02-04T06:22:53;99845.03;;;4.09;100.00
64713;BME280;51140;45.340;5.980;2024-02-04T06:25:18;99841.50;;;4.17;100.00
64713;BME280;51140;45.340;5.980;2024-02-04T06:27:44;99849.13;;;4.26;100.00
64713;BME280;51140;45.340;5.980;2024-02-04T06:30:09;99844.13;;;4.31;100.00
64713;BME280;51140;45.340;5.980;2024-02-04T06:32:35;99844.94;;;4.17;100.00
64713;BME280;51140;45.340;5.980;2024-02-04T06:35:00;99842.31;;;4.32;100.00
64713;BME280;51140;45.340;5.980;2024-02-04T06:37:26;99832.81;;;4.31;100.00
64713;BME280;51140;45.340;5.980;2024-02-04T06:39:52;99843.94;;;4.33;100.00
64713;BME280;51140;45.340;5.980;2024-02-04T06:42:18;99843.59;;;4.36;100.00
64713;BME280;51140;45.340;5.980;2024-02-04T06:44:44;99841.41;;;4.39;100.00
64713;BME280;51140;45.340;5.980;2024-02-04T06:47:10;99838.38;;;4.42;100.00
64713;BME280;51140;45.340;5.980;2024-02-04T06:49:37;99828.09;;;4.26;100.00
64713;BME280;51140;45.340;5.980;2024-02-04T06:52:03;99839.63;;;4.11;100.00
64713;BME280;51140;45.340;5.980;2024-02-04T06:54:28;99850.75;;;4.13;100.00
64713;BME280;51140;45.340;5.980;2024-02-04T06:56:54;99836.16;;;4.10;100.00
64713;BME280;51140;45.340;5.980;2024-02-04T06:59:19;99832.88;;;4.23;100.00
64713;BME280;51140;45.340;5.980;2024-02-04T07:01:44;99839.59;;;4.25;100.00
64713;BME280;51140;45.340;5.980;2024-02-04T07:04:10;99833.25;;;4.20;100.00
64713;BME280;51140;45.340;5.980;2024-02-04T07:06:35;99840.16;;;4.21;100.00
64713;BME280;51140;45.340;5.980;2024-02-04T07:09:00;99829.97;;;4.32;100.00
64713;BME280;51140;45.340;5.980;2024-02-04T07:11:26;99829.53;;;4.29;100.00
64713;BME280;51140;45.340;5.980;2024-02-04T07:13:51;99833.19;;;4.28;100.00
64713;BME280;51140;45.340;5.980;2024-02-04T07:16:23;99827.34;;;4.32;100.00
64713;BME280;51140;45.340;5.980;2024-02-04T07:18:49;99833.25;;;4.20;100.00
64713;BME280;51140;45.340;5.980;2024-02-04T07:21:14;99834.31;;;4.40;100.00
64713;BME280;51140;45.340;5.980;2024-02-04T07:23:40;99825.34;;;4.34;100.00
64713;BME280;51140;45.340;5.980;2024-02-04T07:26:05;99826.72;;;4.30;100.00
64713;BME280;51140;45.340;5.980;2024-02-04T07:28:30;99828.34;;;4.17;100.00
64713;BME280;51140;45.340;5.980;2024-02-04T07:30:56;99828.53;;;4.30;100.00
64713;BME280;51140;45.340;5.980;2024-02-04T07:33:21;99812.28;;;4.41;100.00
64713;BME280;51140;45.340;5.980;2024-02-04T07:35:46;99813.22;;;4.33;100.00
64713;BME280;51140;45.340;5.980;2024-02-04T07:38:12;99815.91;;;4.40;100.00
64713;BME280;51140;45.340;5.980;2024-02-04T07:40:37;99814.56;;;4.29;100.00
64713;BME280;51140;45.340;5.980;2024-02-04T07:43:03;99812.56;;;4.31;100.00
64713;BME280;51140;45.340;5.980;2024-02-04T07:45:28;99808.03;;;4.25;100.00
64713;BME280;51140;45.340;5.980;2024-02-04T07:47:53;99807.78;;;4.20;100.00
64713;BME280;51140;45.340;5.980;2024-02-04T07:50:19;99809.31;;;4.00;100.00
64713;BME280;51140;45.340;5.980;2024-02-04T07:52:44;99819.66;;;4.01;100.00
64713;BME280;51140;45.340;5.980;2024-02-04T07:55:10;99815.69;;;3.91;100.00
64713;BME280;51140;45.340;5.980;2024-02-04T07:57:35;99816.22;;;4.01;100.00
64713;BME280;51140;45.340;5.980;2024-02-04T08:00:01;99812.25;;;3.90;100.00
64713;BME280;51140;45.340;5.980;2024-02-04T08:02:28;99822.47;;;4.00;100.00
64713;BME280;51140;45.340;5.980;2024-02-04T08:04:54;99831.72;;;3.96;100.00
64713;BME280;51140;45.340;5.980;2024-02-04T08:07:19;99828.19;;;4.03;100.00
64713;BME280;51140;45.340;5.980;2024-02-04T08:09:45;99836.78;;;4.12;100.00
64713;BME280;51140;45.340;5.980;2024-02-04T08:12:11;99840.25;;;4.13;100.00
64713;BME280;51140;45.340;5.980;2024-02-04T08:14:37;99840.97;;;4.21;100.00
64713;BME280;51140;45.340;5.980;2024-02-04T08:17:02;99847.94;;;4.14;100.00
64713;BME280;51140;45.340;5.980;2024-02-04T08:19:28;99853.47;;;4.04;100.00
64713;BME280;51140;45.340;5.980;2024-02-04T08:21:53;99850.47;;;4.08;100.00
64713;BME280;51140;45.340;5.980;2024-02-04T08:24:18;99862.06;;;3.98;100.00
64713;BME280;51140;45.340;5.980;2024-02-04T08:26:44;99863.25;;;3.96;100.00
64713;BME280;51140;45.340;5.980;2024-02-04T08:29:10;99863.72;;;3.99;100.00
64713;BME280;51140;45.340;5.980;2024-02-04T08:31:36;99864.97;;;4.03;100.00
64713;BME280;51140;45.340;5.980;2024-02-04T08:34:02;99863.31;;;4.02;100.00
64713;BME280;51140;45.340;5.980;2024-02-04T08:36:28;99866.63;;;4.04;100.00
64713;BME280;51140;45.340;5.980;2024-02-04T08:38:56;99870.75;;;4.28;100.00
64713;BME280;51140;45.340;5.980;2024-02-04T08:41:21;99870.69;;;4.36;100.00
64713;BME280;51140;45.340;5.980;2024-02-04T08:43:46;99868.06;;;4.22;100.00
64713;BME280;51140;45.340;5.980;2024-02-04T08:46:12;99877.03;;;4.27;100.00
64713;BME280;51140;45.340;5.980;2024-02-04T08:48:37;99868.97;;;4.29;100.00
64713;BME280;51140;45.340;5.980;2024-02-04T08:51:03;99869.22;;;4.34;100.00
64713;BME280;51140;45.340;5.980;2024-02-04T08:53:28;99862.25;;;4.41;100.00
64713;BME280;51140;45.340;5.980;2024-02-04T08:55:53;99867.41;;;4.34;100.00
64713;BME280;51140;45.340;5.980;2024-02-04T08:58:19;99858.44;;;4.29;100.00
64713;BME280;51140;45.340;5.980;2024-02-04T09:00:44;99855.66;;;4.45;100.00
64713;BME280;51140;45.340;5.980;2024-02-04T09:03:09;99862.69;;;4.59;100.00
64713;BME280;51140;45.340;5.980;2024-02-04T09:05:35;99865.34;;;4.44;100.00
64713;BME280;51140;45.340;5.980;2024-02-04T09:08:00;99856.63;;;4.44;100.00
64713;BME280;51140;45.340;5.980;2024-02-04T09:10:27;99858.06;;;4.61;100.00
64713;BME280;51140;45.340;5.980;2024-02-04T09:12:52;99860.44;;;4.27;100.00
64713;BME280;51140;45.340;5.980;2024-02-04T09:15:17;99854.63;;;4.46;100.00
64713;BME280;51140;45.340;5.980;2024-02-04T09:17:43;99849.63;;;4.51;100.00
64713;BME280;51140;45.340;5.980;2024-02-04T09:20:08;99846.19;;;4.65;100.00
64713;BME280;51140;45.340;5.980;2024-02-04T09:22:34;99841.81;;;4.72;100.00
64713;BME280;51140;45.340;5.980;2024-02-04T09:25:00;99838.22;;;4.44;100.00
64713;BME280;51140;45.340;5.980;2024-02-04T09:27:25;99845.56;;;4.34;100.00
64713;BME280;51140;45.340;5.980;2024-02-04T09:29:51;99845.75;;;4.47;100.00
64713;BME280;51140;45.340;5.980;2024-02-04T09:32:17;99844.09;;;4.60;100.00
64713;BME280;51140;45.340;5.980;2024-02-04T09:34:42;99850.28;;;4.38;100.00
64713;BME280;51140;45.340;5.980;2024-02-04T09:37:07;99857.34;;;4.38;100.00
64713;BME280;51140;45.340;5.980;2024-02-04T09:39:33;99859.97;;;4.67;100.00
64713;BME280;51140;45.340;5.980;2024-02-04T09:41:58;99860.84;;;4.59;100.00
64713;BME280;51140;45.340;5.980;2024-02-04T09:44:24;99862.84;;;4.72;100.00
64713;BME280;51140;45.340;5.980;2024-02-04T09:46:50;99877.91;;;4.63;100.00
64713;BME280;51140;45.340;5.980;2024-02-04T09:49:17;99872.75;;;4.70;100.00
64713;BME280;51140;45.340;5.980;2024-02-04T09:51:43;99869.84;;;4.65;100.00
64713;BME280;51140;45.340;5.980;2024-02-04T09:54:10;99876.63;;;4.74;100.00
64713;BME280;51140;45.340;5.980;2024-02-04T09:56:37;99869.91;;;4.72;100.00
64713;BME280;51140;45.340;5.980;2024-02-04T09:59:04;99867.25;;;4.50;100.00
64713;BME280;51140;45.340;5.980;2024-02-04T10:01:31;99868.47;;;4.69;100.00
64713;BME280;51140;45.340;5.980;2024-02-04T10:03:56;99867.81;;;4.82;100.00
64713;BME280;51140;45.340;5.980;2024-02-04T10:06:22;99866.66;;;4.70;100.00
64713;BME280;51140;45.340;5.980;2024-02-04T10:08:47;99865.94;;;4.76;100.00
64713;BME280;51140;45.340;5.980;2024-02-04T10:11:13;99867.53;;;4.77;100.00
64713;BME280;51140;45.340;5.980;2024-02-04T10:13:48;99869.09;;;4.71;100.00
64713;BME280;51140;45.340;5.980;2024-02-04T10:16:15;99867.03;;;4.67;100.00
64713;BME280;51140;45.340;5.980;2024-02-04T10:18:42;99868.44;;;4.84;100.00
64713;BME280;51140;45.340;5.980;2024-02-04T10:21:34;99859.63;;;4.91;100.00
64713;BME280;51140;45.340;5.980;2024-02-04T10:24:00;99863.66;;;4.73;100.00
64713;BME280;51140;45.340;5.980;2024-02-04T10:26:28;99854.22;;;4.78;100.00
64713;BME280;51140;45.340;5.980;2024-02-04T10:28:59;99856.84;;;4.78;100.00
64713;BME280;51140;45.340;5.980;2024-02-04T10:31:26;99857.47;;;4.80;99.94
64713;BME280;51140;45.340;5.980;2024-02-04T10:33:51;99854.78;;;4.74;100.00
64713;BME280;51140;45.340;5.980;2024-02-04T10:36:17;99847.44;;;4.69;100.00
64713;BME280;51140;45.340;5.980;2024-02-04T10:38:43;99838.50;;;4.85;100.00
64713;BME280;51140;45.340;5.980;2024-02-04T10:41:14;99851.84;;;4.83;100.00
64713;BME280;51140;45.340;5.980;2024-02-04T10:43:42;99843.94;;;4.83;100.00
64713;BME280;51140;45.340;5.980;2024-02-04T10:46:14;99844.78;;;4.84;100.00
64713;BME280;51140;45.340;5.980;2024-02-04T10:48:42;99845.34;;;4.79;100.00
64713;BME280;51140;45.340;5.980;2024-02-04T10:51:16;99852.38;;;4.93;99.54
64713;BME280;51140;45.340;5.980;2024-02-04T10:53:42;99850.84;;;4.84;99.93
64713;BME280;51140;45.340;5.980;2024-02-04T10:56:19;99855.09;;;4.85;100.00
64713;BME280;51140;45.340;5.980;2024-02-04T10:58:47;99859.97;;;4.88;100.00
64713;BME280;51140;45.340;5.980;2024-02-04T11:01:14;99853.56;;;4.91;99.99
64713;BME280;51140;45.340;5.980;2024-02-04T11:03:40;99852.75;;;4.90;100.00
64713;BME280;51140;45.340;5.980;2024-02-04T11:06:07;99841.28;;;4.98;100.00
64713;BME280;51140;45.340;5.980;2024-02-04T11:08:34;99841.66;;;4.95;99.75
64713;BME280;51140;45.340;5.980;2024-02-04T11:10:59;99841.31;;;4.83;99.61
64713;BME280;51140;45.340;5.980;2024-02-04T11:13:26;99830.09;;;4.75;100.00
64713;BME280;51140;45.340;5.980;2024-02-04T11:15:53;99826.69;;;4.95;100.00
64713;BME280;51140;45.340;5.980;2024-02-04T11:18:30;99827.16;;;4.84;100.00
64713;BME280;51140;45.340;5.980;2024-02-04T11:21:23;99810.75;;;5.03;98.65
64713;BME280;51140;45.340;5.980;2024-02-04T11:26:35;99807.13;;;5.04;99.61
64713;BME280;51140;45.340;5.980;2024-02-04T11:29:03;99812.84;;;5.08;100.00
64713;BME280;51140;45.340;5.980;2024-02-04T11:31:31;99811.38;;;5.05;99.21
64713;BME280;51140;45.340;5.980;2024-02-04T11:33:56;99810.63;;;5.11;100.00
64713;BME280;51140;45.340;5.980;2024-02-04T11:36:25;99805.78;;;4.94;99.07
64713;BME280;51140;45.340;5.980;2024-02-04T11:38:51;99804.06;;;5.01;99.62
64713;BME280;51140;45.340;5.980;2024-02-04T11:41:25;99801.91;;;5.11;99.40
64713;BME280;51140;45.340;5.980;2024-02-04T11:43:53;99799.72;;;5.36;98.35
64713;BME280;51140;45.340;5.980;2024-02-04T11:46:19;99791.31;;;5.47;98.04
64713;BME280;51140;45.340;5.980;2024-02-04T11:48:54;99780.06;;;5.10;98.14
64713;BME280;51140;45.340;5.980;2024-02-04T11:51:23;99790.03;;;5.15;99.78
64713;BME280;51140;45.340;5.980;2024-02-04T11:53:51;99786.50;;;5.29;99.46
64713;BME280;51140;45.340;5.980;2024-02-04T11:56:18;99777.69;;;5.15;98.83
64713;BME280;51140;45.340;5.980;2024-02-04T11:58:44;99777.69;;;5.15;99.63
64713;BME280;51140;45.340;5.980;2024-02-04T12:01:10;99774.97;;;5.30;98.66
64713;BME280;51140;45.340;5.980;2024-02-04T12:03:36;99776.28;;;5.19;98.46
64713;BME280;51140;45.340;5.980;2024-02-04T12:06:02;99780.84;;;5.11;99.78
64713;BME280;51140;45.340;5.980;2024-02-04T12:08:30;99792.38;;;5.31;99.53
64713;BME280;51140;45.340;5.980;2024-02-04T12:10:57;99787.94;;;5.32;97.45
64713;BME280;51140;45.340;5.980;2024-02-04T12:13:23;99780.41;;;5.29;99.32
64713;BME280;51140;45.340;5.980;2024-02-04T12:15:49;99785.03;;;5.48;97.88
64713;BME280;51140;45.340;5.980;2024-02-04T12:18:14;99782.44;;;5.54;96.62
64713;BME280;51140;45.340;5.980;2024-02-04T12:20:41;99781.06;;;5.58;96.09
64713;BME280;51140;45.340;5.980;2024-02-04T12:23:07;99778.28;;;5.39;97.83
64713;BME280;51140;45.340;5.980;2024-02-04T12:25:34;99775.97;;;5.29;99.17
64713;BME280;51140;45.340;5.980;2024-02-04T12:28:00;99776.97;;;5.28;98.37
64713;BME280;51140;45.340;5.980;2024-02-04T12:30:29;99767.38;;;5.42;97.05
64713;BME280;51140;45.340;5.980;2024-02-04T12:32:57;99761.22;;;5.35;97.84
64713;BME280;51140;45.340;5.980;2024-02-04T12:35:22;99768.59;;;5.46;99.17
64713;BME280;51140;45.340;5.980;2024-02-04T12:37:52;99759.63;;;5.40;98.66
64713;BME280;51140;45.340;5.980;2024-02-04T12:40:24;99759.19;;;5.37;98.21
64713;BME280;51140;45.340;5.980;2024-02-04T12:42:58;99768.28;;;5.28;98.67
64713;BME280;51140;45.340;5.980;2024-02-04T12:45:24;99762.50;;;5.45;98.75
64713;BME280;51140;45.340;5.980;2024-02-04T12:47:54;99769.72;;;5.37;98.44
64713;BME280;51140;45.340;5.980;2024-02-04T12:50:20;99762.56;;;5.24;99.04
64713;BME280;51140;45.340;5.980;2024-02-04T12:52:50;99760.47;;;5.41;97.69
64713;BME280;51140;45.340;5.980;2024-02-04T12:55:27;99755.13;;;5.34;98.92
64713;BME280;51140;45.340;5.980;2024-02-04T12:58:09;99751.94;;;5.39;99.30
64713;BME280;51140;45.340;5.980;2024-02-04T13:00:37;99750.91;;;5.33;99.14
64713;BME280;51140;45.340;5.980;2024-02-04T13:03:04;99755.78;;;5.36;98.33